Charles J Cenac — WDC2762 — position and weather

sailwx.info

Track history (hours):
 
Tides and Currents Weather Stations Pressure Air Temp Water Temp Dewpoint Dewpoint Depression Visibility Wind Speed Wind Dir Waves Ship Positions

Charles J Cenac

Owner: BC Towing, Inc., Houma, LA. More information available from US FCC via Universal Licensing System and Coast Guard Vessel Documentation Center.

Last reported at 2017-Sep-10 00:59 UTC. Time now 2017-Sep-24 15:54 UTC.
Position N 30°24' W 086°53'.
Warning: this ship's position is 14 days out of date.

Length 20 m; draft 8 m.

Type: Towing. MMSI: 366997390.

Date/timePositionNaut miles runAvg speedWind from/ knotsBaromVisibWave heightAir tempDewpointWater temp
2017-Sep-10 00:59N 30°24' W 086°53'4 7.4
2017-Sep-10 00:30N 30°24' W 086°49'16 7.2
2017-Sep-09 22:17N 30°26' W 086°30'2 8.1
2017-Sep-09 22:00N 30°26' W 086°28'4 7.9
2017-Sep-09 21:30N 30°26' W 086°23'2 0.1
2017-Sep-08 20:57N 30°26' W 086°21'2 5.4
2017-Sep-08 20:30N 30°26' W 086°24'3 5.3
2017-Sep-08 20:00N 30°26' W 086°27'3 5.6
2017-Sep-08 19:30N 30°29' W 086°29'2 4.8
2017-Sep-08 19:00N 30°31' W 086°30'0 0.3
2017-Sep-08 18:30N 30°31' W 086°30'0 0.0
2017-Sep-08 15:54N 30°31' W 086°30'0 0.0
2017-Sep-08 15:30N 30°31' W 086°30'0 0.0
2017-Sep-08 14:57N 30°31' W 086°30'0 0.0
2017-Sep-08 13:56N 30°31' W 086°30'0 0.0
2017-Sep-08 13:21N 30°31' W 086°30'0 0.0
2017-Sep-08 12:49N 30°31' W 086°30'0 0.0
2017-Sep-08 12:29N 30°31' W 086°30'0 0.0
2017-Sep-08 11:59N 30°31' W 086°30'0 0.0
2017-Sep-08 11:19N 30°31' W 086°30'0 0.0
2017-Sep-08 10:57N 30°31' W 086°30'0 0.0
2017-Sep-08 10:30N 30°31' W 086°30'0 0.0
2017-Sep-08 10:00N 30°31' W 086°30'0 0.0
2017-Sep-08 09:30N 30°31' W 086°30'0 0.0
2017-Sep-08 08:50N 30°31' W 086°30'0 0.0
2017-Sep-08 08:25N 30°31' W 086°30'0 0.0
2017-Sep-08 08:00N 30°31' W 086°30'0 0.0
2017-Sep-08 07:29N 30°31' W 086°30'0 0.0
2017-Sep-08 06:59N 30°31' W 086°30'0 0.0
2017-Sep-08 06:29N 30°31' W 086°30'0 0.0
2017-Sep-08 05:59N 30°31' W 086°30'0 0.0
2017-Sep-08 05:30N 30°31' W 086°30'0 0.0
2017-Sep-08 04:56N 30°31' W 086°30'0 0.0
2017-Sep-08 04:30N 30°31' W 086°30'0 0.0
2017-Sep-08 04:00N 30°31' W 086°30'0 0.0
2017-Sep-08 03:28N 30°31' W 086°30'0 0.0
2017-Sep-08 02:59N 30°31' W 086°30'1 2.1
2017-Sep-08 02:30N 30°30' W 086°29'3 6.8
2017-Sep-08 02:00N 30°27' W 086°29'3 6.7
2017-Sep-08 01:30N 30°24' W 086°31'10 5.5
2017-Sep-07 23:39N 30°22' W 086°42'0 0.3
2017-Sep-07 23:24N 30°22' W 086°42'8 1.8
2017-Sep-07 19:09N 30°22' W 086°33'1 6.7
2017-Sep-07 18:56N 30°22' W 086°32'1 3.4
2017-Sep-07 18:30N 30°24' W 086°31'2 3.6
2017-Sep-07 18:00N 30°25' W 086°31'0 0.9
2017-Sep-07 17:30N 30°26' W 086°30'2 3.2
2017-Sep-07 17:00N 30°27' W 086°29'3 5.3
2017-Sep-07 16:30N 30°30' W 086°29'2 0.6
2017-Sep-07 13:33N 30°31' W 086°30'0 0.4
2017-Sep-07 13:30N 30°31' W 086°30'0 0.0
2017-Sep-07 13:00N 30°31' W 086°30'0 0.0
2017-Sep-07 12:30N 30°31' W 086°30'0 0.0
2017-Sep-07 12:00N 30°31' W 086°30'0 0.0
2017-Sep-07 11:30N 30°31' W 086°30'0 0.0
2017-Sep-07 11:00N 30°31' W 086°30'0 0.0
2017-Sep-07 10:30N 30°31' W 086°30'0 0.0
2017-Sep-07 10:00N 30°31' W 086°30'0 0.0
2017-Sep-07 09:30N 30°31' W 086°30'0 0.0
2017-Sep-07 09:00N 30°31' W 086°30'0 0.0
2017-Sep-07 08:30N 30°31' W 086°30'0 0.0
2017-Sep-07 08:00N 30°31' W 086°30'0 0.0
2017-Sep-07 07:30N 30°31' W 086°30'0 0.0
2017-Sep-07 07:00N 30°31' W 086°30'0 0.0
2017-Sep-07 06:30N 30°31' W 086°30'0 0.0
2017-Sep-07 06:00N 30°31' W 086°30'0 0.0
2017-Sep-07 05:30N 30°31' W 086°30'0 0.0
2017-Sep-07 05:00N 30°31' W 086°30'0 0.0
2017-Sep-07 04:30N 30°31' W 086°30'0 0.0
2017-Sep-07 04:00N 30°31' W 086°30'0 0.0
2017-Sep-07 03:30N 30°31' W 086°30'0 0.0
2017-Sep-07 03:00N 30°31' W 086°30'0 0.0
2017-Sep-07 02:30N 30°31' W 086°30'0 0.0
2017-Sep-07 02:00N 30°31' W 086°30'0 0.0
2017-Sep-07 01:30N 30°31' W 086°30'0 0.0
2017-Sep-07 01:00N 30°31' W 086°30'0 0.0
2017-Sep-07 00:30N 30°31' W 086°30'0 0.0
2017-Sep-07 00:00N 30°31' W 086°30'0 0.0
2017-Sep-06 23:30N 30°31' W 086°30'0 0.0
2017-Sep-06 23:00N 30°31' W 086°30'0 0.0
2017-Sep-06 22:30N 30°31' W 086°30'0 0.0
2017-Sep-06 22:00N 30°31' W 086°30'0 0.0
2017-Sep-06 21:30N 30°31' W 086°30'0 0.0
2017-Sep-06 21:00N 30°31' W 086°30'0 0.0
2017-Sep-06 20:30N 30°31' W 086°30'0 0.0
2017-Sep-06 20:00N 30°31' W 086°30'0 0.0
2017-Sep-06 19:30N 30°31' W 086°30'0 0.0
2017-Sep-06 19:00N 30°31' W 086°30'0 0.0
2017-Sep-06 18:30N 30°31' W 086°30'0 0.0
2017-Sep-06 18:00N 30°31' W 086°30'0 0.0
2017-Sep-06 17:30N 30°31' W 086°30'0 0.0
2017-Sep-06 17:00N 30°31' W 086°30'0 0.0
2017-Sep-06 16:30N 30°31' W 086°30'0 0.0
2017-Sep-06 04:05N 30°31' W 086°30'0 0.5
2017-Sep-06 04:00N 30°31' W 086°30'3 6.1
2017-Sep-06 03:30N 30°28' W 086°28'5 7.4
2017-Sep-06 02:52N 30°24' W 086°31'2 3.9
2017-Sep-06 02:25N 30°23' W 086°31'13 5.7
2017-Sep-06 00:09N 30°21' W 086°45'1 7.3
2017-Sep-06 00:00N 30°21' W 086°47'0 0.4
2017-Sep-05 23:30N 30°21' W 086°47'0 0.1
2017-Sep-05 23:00N 30°21' W 086°47'0 0.0
2017-Sep-05 22:30N 30°21' W 086°47'0 0.0
2017-Sep-05 22:00N 30°21' W 086°47'0 0.0
2017-Sep-05 21:30N 30°21' W 086°47'0 0.2
2017-Sep-05 21:00N 30°21' W 086°47'1 1.8
2017-Sep-05 20:30N 30°21' W 086°46'11 6.3
2017-Sep-05 18:41N 30°22' W 086°33'2 4.6
2017-Sep-05 18:16N 30°23' W 086°31'1 3.4
2017-Sep-05 17:58N 30°24' W 086°31'3 5.7
2017-Sep-05 17:27N 30°27' W 086°29'3 5.6
2017-Sep-05 17:00N 30°29' W 086°29'2 4.3
2017-Sep-05 16:29N 30°31' W 086°30'0 0.0
2017-Sep-03 23:19N 30°31' W 086°29'2 5.4
2017-Sep-03 23:00N 30°29' W 086°29'3 5.7
2017-Sep-03 22:30N 30°27' W 086°29'3 5.7
2017-Sep-03 22:00N 30°24' W 086°31'2 3.3
2017-Sep-03 21:30N 30°23' W 086°31'13 6.1
2017-Sep-03 19:25N 30°21' W 086°45'1 3.4
2017-Sep-03 19:01N 30°21' W 086°47'0 0.0
2017-Sep-03 18:30N 30°21' W 086°47'0 0.0
2017-Sep-03 18:00N 30°21' W 086°47'0 0.1
2017-Sep-03 17:30N 30°21' W 086°47'0 0.1
2017-Sep-03 17:00N 30°21' W 086°47'1 1.6
2017-Sep-03 16:25N 30°21' W 086°46'3 1.1
2017-Sep-03 13:25N 30°22' W 086°42'10 4.6
2017-Sep-03 11:16N 30°24' W 086°31'3 3.3
2017-Sep-03 10:24N 30°27' W 086°29'2 4.0
2017-Sep-03 10:00N 30°28' W 086°28'2 4.7
2017-Sep-03 09:31N 30°30' W 086°29'1 2.3
2017-Sep-03 09:00N 30°31' W 086°30'0 0.0
2017-Sep-03 08:30N 30°31' W 086°30'0 0.0
2017-Sep-03 08:00N 30°31' W 086°30'0 0.0
2017-Sep-03 07:30N 30°31' W 086°30'0 0.0
2017-Sep-03 07:00N 30°31' W 086°30'0 0.0
2017-Sep-03 06:30N 30°31' W 086°30'0 0.0
2017-Sep-03 06:00N 30°31' W 086°30'0 0.0
2017-Sep-03 05:30N 30°31' W 086°30'0 0.0
2017-Sep-03 05:00N 30°31' W 086°30'0 0.0
2017-Sep-03 04:30N 30°31' W 086°30'0 0.0
2017-Sep-03 04:00N 30°31' W 086°30'0 0.0
2017-Sep-03 03:30N 30°31' W 086°30'0 0.0
2017-Sep-03 03:00N 30°31' W 086°30'0 0.0
2017-Sep-03 02:30N 30°31' W 086°30'0 0.0
2017-Sep-03 02:00N 30°31' W 086°30'0 0.0
2017-Sep-03 01:30N 30°31' W 086°30'0 0.0
2017-Sep-03 01:00N 30°31' W 086°30'0 0.0
2017-Sep-03 00:30N 30°31' W 086°30'0 0.0
2017-Sep-03 00:00N 30°31' W 086°30'0 0.0
2017-Sep-02 23:30N 30°31' W 086°30'0 0.0
2017-Sep-02 23:00N 30°31' W 086°30'0 0.0
2017-Sep-02 22:30N 30°31' W 086°30'0 0.0
2017-Sep-02 22:00N 30°31' W 086°30'0 0.0
2017-Sep-02 21:30N 30°31' W 086°30'0 0.0
2017-Sep-02 21:00N 30°31' W 086°30'0 0.0
2017-Sep-02 20:30N 30°31' W 086°30'0 0.0
2017-Sep-02 20:00N 30°31' W 086°30'0 0.0
2017-Sep-02 19:30N 30°31' W 086°30'0 0.0
2017-Sep-02 19:00N 30°31' W 086°30'0 0.0
2017-Sep-02 18:30N 30°31' W 086°30'0 0.0
2017-Sep-02 18:00N 30°31' W 086°30'0 0.0
2017-Sep-02 17:30N 30°31' W 086°30'0 0.0
2017-Sep-02 17:00N 30°31' W 086°30'0 0.0
2017-Sep-02 16:30N 30°31' W 086°30'0 0.0
2017-Sep-02 16:00N 30°31' W 086°30'0 0.0
2017-Sep-02 15:30N 30°31' W 086°30'0 0.0
2017-Sep-02 15:00N 30°31' W 086°30'0 0.0
2017-Sep-02 14:30N 30°31' W 086°30'0 0.0
2017-Sep-02 14:00N 30°31' W 086°30'0 0.0
2017-Sep-02 13:30N 30°31' W 086°30'0 0.0
2017-Sep-02 13:00N 30°31' W 086°30'0 0.0
2017-Sep-02 12:30N 30°31' W 086°30'0 0.0
2017-Sep-02 12:00N 30°31' W 086°30'0 0.0
2017-Sep-02 11:30N 30°31' W 086°30'0 0.0
2017-Sep-02 11:00N 30°31' W 086°30'0 0.0
2017-Sep-02 10:30N 30°31' W 086°30'0 0.0
2017-Sep-02 10:00N 30°31' W 086°30'0 0.0
2017-Sep-02 09:30N 30°31' W 086°30'0 0.0
2017-Sep-02 09:00N 30°31' W 086°30'0 0.0
2017-Sep-02 08:30N 30°31' W 086°30'0 0.0
2017-Sep-02 08:00N 30°31' W 086°30'0 0.0
2017-Sep-02 07:30N 30°31' W 086°30'0 0.0
2017-Sep-02 07:00N 30°31' W 086°30'0 0.0
2017-Sep-02 06:30N 30°31' W 086°30'0 0.0
2017-Sep-02 06:00N 30°31' W 086°30'0 0.0
2017-Sep-02 05:30N 30°31' W 086°30'0 0.0
2017-Sep-02 05:00N 30°31' W 086°30'0 0.0
2017-Sep-02 04:30N 30°31' W 086°30'0 0.0
2017-Sep-02 04:00N 30°31' W 086°30'0 0.0
2017-Sep-02 03:30N 30°31' W 086°30'0 0.0
2017-Sep-02 03:00N 30°31' W 086°30'0 0.0
2017-Sep-02 02:30N 30°31' W 086°30'0 0.0
2017-Sep-02 02:00N 30°31' W 086°30'0 0.0
2017-Sep-02 01:30N 30°31' W 086°30'0 0.0
2017-Sep-02 01:00N 30°31' W 086°30'0 0.0
2017-Sep-02 00:30N 30°31' W 086°30'0 0.0
2017-Sep-02 00:00N 30°31' W 086°30'0 0.0
2017-Sep-01 23:30N 30°31' W 086°30'0 0.0
2017-Sep-01 23:00N 30°31' W 086°30'0 0.0
2017-Sep-01 22:30N 30°31' W 086°30'0 0.0
2017-Sep-01 22:00N 30°31' W 086°30'0 0.0
2017-Sep-01 21:30N 30°31' W 086°30'0 0.0
2017-Sep-01 21:00N 30°31' W 086°30'0 0.0
2017-Sep-01 20:30N 30°31' W 086°30'0 0.0
2017-Sep-01 20:00N 30°31' W 086°30'0 0.0
2017-Sep-01 19:30N 30°31' W 086°30'0 0.0
2017-Sep-01 19:00N 30°31' W 086°30'0 0.0
2017-Sep-01 18:30N 30°31' W 086°30'0 0.0
2017-Sep-01 18:00N 30°31' W 086°30'0 0.0
2017-Sep-01 17:30N 30°31' W 086°30'0 0.0
2017-Sep-01 17:00N 30°31' W 086°30'0 0.0
2017-Sep-01 16:30N 30°31' W 086°30'1 2.5
2017-Sep-01 16:00N 30°30' W 086°29'3 6.5
2017-Sep-01 15:30N 30°27' W 086°29'4 6.4
2017-Sep-01 14:57N 30°23' W 086°31'1 1.1
2017-Sep-01 14:25N 30°24' W 086°31'3 7.6
2017-Sep-01 14:00N 30°27' W 086°29'3 6.0
2017-Sep-01 13:30N 30°30' W 086°29'  
Track history (hours):
 
Tides and Currents Weather Stations Pressure Air Temp Water Temp Dewpoint Dewpoint Depression Visibility Wind Speed Wind Dir Waves Ship Positions

Charles J Cenac

Owner: BC Towing, Inc., Houma, LA. More information available from US FCC via Universal Licensing System and Coast Guard Vessel Documentation Center.

Last reported at 2017-Sep-10 00:59 UTC. Time now 2017-Sep-24 15:54 UTC.
Position N 30°24' W 086°53'.
Warning: this ship's position is 14 days out of date.

Length 20 m; draft 8 m.

Type: Towing. MMSI: 366997390.

Date/timePositionNaut miles runAvg speedWind from/ knotsBaromVisibWave heightAir tempDewpointWater temp
2017-Sep-10 00:59N 30°24' W 086°53'4 7.4
2017-Sep-10 00:30N 30°24' W 086°49'16 7.2
2017-Sep-09 22:17N 30°26' W 086°30'2 8.1
2017-Sep-09 22:00N 30°26' W 086°28'4 7.9
2017-Sep-09 21:30N 30°26' W 086°23'2 0.1
2017-Sep-08 20:57N 30°26' W 086°21'2 5.4
2017-Sep-08 20:30N 30°26' W 086°24'3 5.3
2017-Sep-08 20:00N 30°26' W 086°27'3 5.6
2017-Sep-08 19:30N 30°29' W 086°29'2 4.8
2017-Sep-08 19:00N 30°31' W 086°30'0 0.3
2017-Sep-08 18:30N 30°31' W 086°30'0 0.0
2017-Sep-08 15:54N 30°31' W 086°30'0 0.0
2017-Sep-08 15:30N 30°31' W 086°30'0 0.0
2017-Sep-08 14:57N 30°31' W 086°30'0 0.0
2017-Sep-08 13:56N 30°31' W 086°30'0 0.0
2017-Sep-08 13:21N 30°31' W 086°30'0 0.0
2017-Sep-08 12:49N 30°31' W 086°30'0 0.0
2017-Sep-08 12:29N 30°31' W 086°30'0 0.0
2017-Sep-08 11:59N 30°31' W 086°30'0 0.0
2017-Sep-08 11:19N 30°31' W 086°30'0 0.0
2017-Sep-08 10:57N 30°31' W 086°30'0 0.0
2017-Sep-08 10:30N 30°31' W 086°30'0 0.0
2017-Sep-08 10:00N 30°31' W 086°30'0 0.0
2017-Sep-08 09:30N 30°31' W 086°30'0 0.0
2017-Sep-08 08:50N 30°31' W 086°30'0 0.0
2017-Sep-08 08:25N 30°31' W 086°30'0 0.0
2017-Sep-08 08:00N 30°31' W 086°30'0 0.0
2017-Sep-08 07:29N 30°31' W 086°30'0 0.0
2017-Sep-08 06:59N 30°31' W 086°30'0 0.0
2017-Sep-08 06:29N 30°31' W 086°30'0 0.0
2017-Sep-08 05:59N 30°31' W 086°30'0 0.0
2017-Sep-08 05:30N 30°31' W 086°30'0 0.0
2017-Sep-08 04:56N 30°31' W 086°30'0 0.0
2017-Sep-08 04:30N 30°31' W 086°30'0 0.0
2017-Sep-08 04:00N 30°31' W 086°30'0 0.0
2017-Sep-08 03:28N 30°31' W 086°30'0 0.0
2017-Sep-08 02:59N 30°31' W 086°30'1 2.1
2017-Sep-08 02:30N 30°30' W 086°29'3 6.8
2017-Sep-08 02:00N 30°27' W 086°29'3 6.7
2017-Sep-08 01:30N 30°24' W 086°31'10 5.5
2017-Sep-07 23:39N 30°22' W 086°42'0 0.3
2017-Sep-07 23:24N 30°22' W 086°42'8 1.8
2017-Sep-07 19:09N 30°22' W 086°33'1 6.7
2017-Sep-07 18:56N 30°22' W 086°32'1 3.4
2017-Sep-07 18:30N 30°24' W 086°31'2 3.6
2017-Sep-07 18:00N 30°25' W 086°31'0 0.9
2017-Sep-07 17:30N 30°26' W 086°30'2 3.2
2017-Sep-07 17:00N 30°27' W 086°29'3 5.3
2017-Sep-07 16:30N 30°30' W 086°29'2 0.6
2017-Sep-07 13:33N 30°31' W 086°30'0 0.4
2017-Sep-07 13:30N 30°31' W 086°30'0 0.0
2017-Sep-07 13:00N 30°31' W 086°30'0 0.0
2017-Sep-07 12:30N 30°31' W 086°30'0 0.0
2017-Sep-07 12:00N 30°31' W 086°30'0 0.0
2017-Sep-07 11:30N 30°31' W 086°30'0 0.0
2017-Sep-07 11:00N 30°31' W 086°30'0 0.0
2017-Sep-07 10:30N 30°31' W 086°30'0 0.0
2017-Sep-07 10:00N 30°31' W 086°30'0 0.0
2017-Sep-07 09:30N 30°31' W 086°30'0 0.0
2017-Sep-07 09:00N 30°31' W 086°30'0 0.0
2017-Sep-07 08:30N 30°31' W 086°30'0 0.0
2017-Sep-07 08:00N 30°31' W 086°30'0 0.0
2017-Sep-07 07:30N 30°31' W 086°30'0 0.0
2017-Sep-07 07:00N 30°31' W 086°30'0 0.0
2017-Sep-07 06:30N 30°31' W 086°30'0 0.0
2017-Sep-07 06:00N 30°31' W 086°30'0 0.0
2017-Sep-07 05:30N 30°31' W 086°30'0 0.0
2017-Sep-07 05:00N 30°31' W 086°30'0 0.0
2017-Sep-07 04:30N 30°31' W 086°30'0 0.0
2017-Sep-07 04:00N 30°31' W 086°30'0 0.0
2017-Sep-07 03:30N 30°31' W 086°30'0 0.0
2017-Sep-07 03:00N 30°31' W 086°30'0 0.0
2017-Sep-07 02:30N 30°31' W 086°30'0 0.0
2017-Sep-07 02:00N 30°31' W 086°30'0 0.0
2017-Sep-07 01:30N 30°31' W 086°30'0 0.0
2017-Sep-07 01:00N 30°31' W 086°30'0 0.0
2017-Sep-07 00:30N 30°31' W 086°30'0 0.0
2017-Sep-07 00:00N 30°31' W 086°30'0 0.0
2017-Sep-06 23:30N 30°31' W 086°30'0 0.0
2017-Sep-06 23:00N 30°31' W 086°30'0 0.0
2017-Sep-06 22:30N 30°31' W 086°30'0 0.0
2017-Sep-06 22:00N 30°31' W 086°30'0 0.0
2017-Sep-06 21:30N 30°31' W 086°30'0 0.0
2017-Sep-06 21:00N 30°31' W 086°30'0 0.0
2017-Sep-06 20:30N 30°31' W 086°30'0 0.0
2017-Sep-06 20:00N 30°31' W 086°30'0 0.0
2017-Sep-06 19:30N 30°31' W 086°30'0 0.0
2017-Sep-06 19:00N 30°31' W 086°30'0 0.0
2017-Sep-06 18:30N 30°31' W 086°30'0 0.0
2017-Sep-06 18:00N 30°31' W 086°30'0 0.0
2017-Sep-06 17:30N 30°31' W 086°30'0 0.0
2017-Sep-06 17:00N 30°31' W 086°30'0 0.0
2017-Sep-06 16:30N 30°31' W 086°30'0 0.0
2017-Sep-06 04:05N 30°31' W 086°30'0 0.5
2017-Sep-06 04:00N 30°31' W 086°30'3 6.1
2017-Sep-06 03:30N 30°28' W 086°28'5 7.4
2017-Sep-06 02:52N 30°24' W 086°31'2 3.9
2017-Sep-06 02:25N 30°23' W 086°31'13 5.7
2017-Sep-06 00:09N 30°21' W 086°45'1 7.3
2017-Sep-06 00:00N 30°21' W 086°47'0 0.4
2017-Sep-05 23:30N 30°21' W 086°47'0 0.1
2017-Sep-05 23:00N 30°21' W 086°47'0 0.0
2017-Sep-05 22:30N 30°21' W 086°47'0 0.0
2017-Sep-05 22:00N 30°21' W 086°47'0 0.0
2017-Sep-05 21:30N 30°21' W 086°47'0 0.2
2017-Sep-05 21:00N 30°21' W 086°47'1 1.8
2017-Sep-05 20:30N 30°21' W 086°46'11 6.3
2017-Sep-05 18:41N 30°22' W 086°33'2 4.6
2017-Sep-05 18:16N 30°23' W 086°31'1 3.4
2017-Sep-05 17:58N 30°24' W 086°31'3 5.7
2017-Sep-05 17:27N 30°27' W 086°29'3 5.6
2017-Sep-05 17:00N 30°29' W 086°29'2 4.3
2017-Sep-05 16:29N 30°31' W 086°30'0 0.0
2017-Sep-03 23:19N 30°31' W 086°29'2 5.4
2017-Sep-03 23:00N 30°29' W 086°29'3 5.7
2017-Sep-03 22:30N 30°27' W 086°29'3 5.7
2017-Sep-03 22:00N 30°24' W 086°31'2 3.3
2017-Sep-03 21:30N 30°23' W 086°31'13 6.1
2017-Sep-03 19:25N 30°21' W 086°45'1 3.4
2017-Sep-03 19:01N 30°21' W 086°47'0 0.0
2017-Sep-03 18:30N 30°21' W 086°47'0 0.0
2017-Sep-03 18:00N 30°21' W 086°47'0 0.1
2017-Sep-03 17:30N 30°21' W 086°47'0 0.1
2017-Sep-03 17:00N 30°21' W 086°47'1 1.6
2017-Sep-03 16:25N 30°21' W 086°46'3 1.1
2017-Sep-03 13:25N 30°22' W 086°42'10 4.6
2017-Sep-03 11:16N 30°24' W 086°31'3 3.3
2017-Sep-03 10:24N 30°27' W 086°29'2 4.0
2017-Sep-03 10:00N 30°28' W 086°28'2 4.7
2017-Sep-03 09:31N 30°30' W 086°29'1 2.3
2017-Sep-03 09:00N 30°31' W 086°30'0 0.0
2017-Sep-03 08:30N 30°31' W 086°30'0 0.0
2017-Sep-03 08:00N 30°31' W 086°30'0 0.0
2017-Sep-03 07:30N 30°31' W 086°30'0 0.0
2017-Sep-03 07:00N 30°31' W 086°30'0 0.0
2017-Sep-03 06:30N 30°31' W 086°30'0 0.0
2017-Sep-03 06:00N 30°31' W 086°30'0 0.0
2017-Sep-03 05:30N 30°31' W 086°30'0 0.0
2017-Sep-03 05:00N 30°31' W 086°30'0 0.0
2017-Sep-03 04:30N 30°31' W 086°30'0 0.0
2017-Sep-03 04:00N 30°31' W 086°30'0 0.0
2017-Sep-03 03:30N 30°31' W 086°30'0 0.0
2017-Sep-03 03:00N 30°31' W 086°30'0 0.0
2017-Sep-03 02:30N 30°31' W 086°30'0 0.0
2017-Sep-03 02:00N 30°31' W 086°30'0 0.0
2017-Sep-03 01:30N 30°31' W 086°30'0 0.0
2017-Sep-03 01:00N 30°31' W 086°30'0 0.0
2017-Sep-03 00:30N 30°31' W 086°30'0 0.0
2017-Sep-03 00:00N 30°31' W 086°30'0 0.0
2017-Sep-02 23:30N 30°31' W 086°30'0 0.0
2017-Sep-02 23:00N 30°31' W 086°30'0 0.0
2017-Sep-02 22:30N 30°31' W 086°30'0 0.0
2017-Sep-02 22:00N 30°31' W 086°30'0 0.0
2017-Sep-02 21:30N 30°31' W 086°30'0 0.0
2017-Sep-02 21:00N 30°31' W 086°30'0 0.0
2017-Sep-02 20:30N 30°31' W 086°30'0 0.0
2017-Sep-02 20:00N 30°31' W 086°30'0 0.0
2017-Sep-02 19:30N 30°31' W 086°30'0 0.0
2017-Sep-02 19:00N 30°31' W 086°30'0 0.0
2017-Sep-02 18:30N 30°31' W 086°30'0 0.0
2017-Sep-02 18:00N 30°31' W 086°30'0 0.0
2017-Sep-02 17:30N 30°31' W 086°30'0 0.0
2017-Sep-02 17:00N 30°31' W 086°30'0 0.0
2017-Sep-02 16:30N 30°31' W 086°30'0 0.0
2017-Sep-02 16:00N 30°31' W 086°30'0 0.0
2017-Sep-02 15:30N 30°31' W 086°30'0 0.0
2017-Sep-02 15:00N 30°31' W 086°30'0 0.0
2017-Sep-02 14:30N 30°31' W 086°30'0 0.0
2017-Sep-02 14:00N 30°31' W 086°30'0 0.0
2017-Sep-02 13:30N 30°31' W 086°30'0 0.0
2017-Sep-02 13:00N 30°31' W 086°30'0 0.0
2017-Sep-02 12:30N 30°31' W 086°30'0 0.0
2017-Sep-02 12:00N 30°31' W 086°30'0 0.0
2017-Sep-02 11:30N 30°31' W 086°30'0 0.0
2017-Sep-02 11:00N 30°31' W 086°30'0 0.0
2017-Sep-02 10:30N 30°31' W 086°30'0 0.0
2017-Sep-02 10:00N 30°31' W 086°30'0 0.0
2017-Sep-02 09:30N 30°31' W 086°30'0 0.0
2017-Sep-02 09:00N 30°31' W 086°30'0 0.0
2017-Sep-02 08:30N 30°31' W 086°30'0 0.0
2017-Sep-02 08:00N 30°31' W 086°30'0 0.0
2017-Sep-02 07:30N 30°31' W 086°30'0 0.0
2017-Sep-02 07:00N 30°31' W 086°30'0 0.0
2017-Sep-02 06:30N 30°31' W 086°30'0 0.0
2017-Sep-02 06:00N 30°31' W 086°30'0 0.0
2017-Sep-02 05:30N 30°31' W 086°30'0 0.0
2017-Sep-02 05:00N 30°31' W 086°30'0 0.0
2017-Sep-02 04:30N 30°31' W 086°30'0 0.0
2017-Sep-02 04:00N 30°31' W 086°30'0 0.0
2017-Sep-02 03:30N 30°31' W 086°30'0 0.0
2017-Sep-02 03:00N 30°31' W 086°30'0 0.0
2017-Sep-02 02:30N 30°31' W 086°30'0 0.0
2017-Sep-02 02:00N 30°31' W 086°30'0 0.0
2017-Sep-02 01:30N 30°31' W 086°30'0 0.0
2017-Sep-02 01:00N 30°31' W 086°30'0 0.0
2017-Sep-02 00:30N 30°31' W 086°30'0 0.0
2017-Sep-02 00:00N 30°31' W 086°30'0 0.0
2017-Sep-01 23:30N 30°31' W 086°30'0 0.0
2017-Sep-01 23:00N 30°31' W 086°30'0 0.0
2017-Sep-01 22:30N 30°31' W 086°30'0 0.0
2017-Sep-01 22:00N 30°31' W 086°30'0 0.0
2017-Sep-01 21:30N 30°31' W 086°30'0 0.0
2017-Sep-01 21:00N 30°31' W 086°30'0 0.0
2017-Sep-01 20:30N 30°31' W 086°30'0 0.0
2017-Sep-01 20:00N 30°31' W 086°30'0 0.0
2017-Sep-01 19:30N 30°31' W 086°30'0 0.0
2017-Sep-01 19:00N 30°31' W 086°30'0 0.0
2017-Sep-01 18:30N 30°31' W 086°30'0 0.0
2017-Sep-01 18:00N 30°31' W 086°30'0 0.0
2017-Sep-01 17:30N 30°31' W 086°30'0 0.0
2017-Sep-01 17:00N 30°31' W 086°30'0 0.0
2017-Sep-01 16:30N 30°31' W 086°30'1 2.5
2017-Sep-01 16:00N 30°30' W 086°29'3 6.5
2017-Sep-01 15:30N 30°27' W 086°29'4 6.4
2017-Sep-01 14:57N 30°23' W 086°31'1 1.1
2017-Sep-01 14:25N 30°24' W 086°31'3 7.6
2017-Sep-01 14:00N 30°27' W 086°29'3 6.0
2017-Sep-01 13:30N 30°30' W 086°29'  

Dump ship's entire track history